createdAt,value
2018-10-18T00:00:36.933Z,1999.90
2018-10-18T00:03:05.863Z,1999.90
2018-10-18T00:05:35.192Z,1947.23
2018-10-18T00:08:04.129Z,1336.50
2018-10-18T00:10:32.906Z,1999.90
2018-10-18T00:13:01.733Z,1999.90
2018-10-18T00:15:30.579Z,1999.90
2018-10-18T00:17:59.561Z,1999.90
2018-10-18T00:20:28.391Z,1999.90
2018-10-18T00:22:57.420Z,1999.90
2018-10-18T00:25:26.344Z,1967.97
2018-10-18T00:27:55.314Z,1482.13
2018-10-18T00:30:24.194Z,1999.90
2018-10-18T00:32:53.160Z,1999.90
2018-10-18T00:35:22.144Z,1605.87
2018-10-18T00:37:50.976Z,1999.90
2018-10-18T00:40:19.879Z,1999.90
2018-10-18T00:42:49.018Z,1999.90
2018-10-18T00:45:18.037Z,1999.90
2018-10-18T00:47:47.056Z,1999.90
2018-10-18T00:50:16.139Z,1607.33
2018-10-18T00:52:44.999Z,1932.20
2018-10-18T00:55:14.740Z,1999.90
2018-10-18T00:57:43.794Z,1999.90
2018-10-18T01:00:14.092Z,1391.10
2018-10-18T01:02:44.388Z,916.50
2018-10-18T01:05:13.312Z,625.03
2018-10-18T01:07:42.211Z,1145.33
2018-10-18T01:10:11.990Z,1061.53
2018-10-18T01:12:40.971Z,891.80
2018-10-18T01:15:10.729Z,450.57
2018-10-18T01:17:40.036Z,405.67
2018-10-18T01:20:09.035Z,142.73
2018-10-18T01:22:37.951Z,193.80
2018-10-18T01:25:07.219Z,313.07
2018-10-18T01:27:36.228Z,1388.13
2018-10-18T01:30:06.484Z,1999.90
2018-10-18T01:32:35.419Z,529.37
2018-10-18T01:35:04.390Z,1906.73
2018-10-18T01:37:33.425Z,579.07
2018-10-18T01:40:03.746Z,1046.83
2018-10-18T01:42:32.528Z,1772.83
2018-10-18T01:45:01.384Z,1113.00
2018-10-18T01:47:30.116Z,862.57
2018-10-18T01:49:59.023Z,1527.63
2018-10-18T01:52:27.850Z,1999.90
2018-10-18T01:54:56.684Z,325.57
2018-10-18T01:57:25.556Z,290.53
2018-10-18T01:59:55.222Z,784.47
2018-10-18T02:02:24.354Z,1126.40
2018-10-18T02:04:53.346Z,1731.00
2018-10-18T02:07:22.259Z,1736.40
2018-10-18T02:09:51.127Z,722.90
2018-10-18T02:12:20.376Z,1529.00
2018-10-18T02:14:51.228Z,1999.90
2018-10-18T02:17:20.049Z,1267.67
2018-10-18T02:19:48.935Z,383.33
2018-10-18T02:22:17.764Z,811.23
2018-10-18T02:24:46.668Z,1511.87
2018-10-18T02:27:15.586Z,989.57
2018-10-18T02:29:44.449Z,413.80
2018-10-18T02:32:13.328Z,1615.13
2018-10-18T02:34:42.134Z,1485.40
2018-10-18T02:37:11.038Z,1999.90
2018-10-18T02:39:40.198Z,1999.90
2018-10-18T02:42:09.186Z,1349.50
2018-10-18T02:44:38.052Z,1860.00
2018-10-18T02:47:06.864Z,1707.80
2018-10-18T02:49:35.693Z,1616.17
2018-10-18T02:52:04.570Z,1388.70
2018-10-18T02:54:33.578Z,396.73
2018-10-18T02:57:02.416Z,1281.87
2018-10-18T02:59:31.234Z,866.50
2018-10-18T03:02:00.103Z,672.67
2018-10-18T03:04:28.955Z,772.90
2018-10-18T03:06:57.845Z,420.10
2018-10-18T03:09:26.714Z,169.57
2018-10-18T03:11:57.729Z,376.23
2018-10-18T03:14:26.693Z,288.90
2018-10-18T03:16:55.455Z,211.47
2018-10-18T03:19:24.266Z,325.60
2018-10-18T03:21:53.082Z,199.20
2018-10-18T03:24:22.243Z,300.43
2018-10-18T03:26:51.063Z,207.47
2018-10-18T03:29:19.875Z,166.40
2018-10-18T03:31:48.646Z,192.53
2018-10-18T03:34:17.541Z,211.90
2018-10-18T03:36:46.408Z,274.67
2018-10-18T03:39:15.228Z,758.73
2018-10-18T03:41:44.065Z,636.10
2018-10-18T03:44:13.170Z,1068.47
2018-10-18T03:46:42.030Z,1195.87
2018-10-18T03:49:10.852Z,1532.90
2018-10-18T03:51:39.726Z,524.40
2018-10-18T03:54:08.617Z,600.03
2018-10-18T03:56:37.716Z,431.60
2018-10-18T03:59:07.284Z,291.70
2018-10-18T04:01:36.203Z,248.50
2018-10-18T04:04:05.723Z,330.47
2018-10-18T04:06:34.590Z,446.77
2018-10-18T04:09:03.878Z,365.30
2018-10-18T04:11:32.807Z,267.67
2018-10-18T04:14:01.732Z,868.27
2018-10-18T04:16:30.567Z,889.50
2018-10-18T04:18:59.375Z,719.53
2018-10-18T04:21:28.310Z,498.23
2018-10-18T04:23:57.176Z,283.27
2018-10-18T04:26:26.012Z,250.17
2018-10-18T04:28:54.907Z,282.97
2018-10-18T04:31:23.792Z,277.77
2018-10-18T04:33:52.643Z,217.77
2018-10-18T04:36:21.576Z,258.13
2018-10-18T04:38:50.452Z,238.33
2018-10-18T04:41:19.269Z,271.93
2018-10-18T04:43:52.944Z,313.53
2018-10-18T04:46:21.871Z,353.33
2018-10-18T04:48:50.792Z,339.53
2018-10-18T04:51:19.640Z,364.60
2018-10-18T04:53:48.468Z,426.87
2018-10-18T04:56:17.310Z,396.90
2018-10-18T04:58:48.200Z,245.40
2018-10-18T05:01:17.118Z,281.37
2018-10-18T05:03:45.899Z,236.40
2018-10-18T05:06:14.766Z,186.17
2018-10-18T05:08:43.617Z,138.70
2018-10-18T05:11:12.536Z,150.70
2018-10-18T05:13:41.492Z,169.07
2018-10-18T05:16:10.292Z,149.07
2018-10-18T05:18:39.171Z,156.53
2018-10-18T05:21:08.053Z,260.47
2018-10-18T05:23:36.935Z,156.80
2018-10-18T05:26:06.359Z,150.93
2018-10-18T05:28:35.217Z,183.73
2018-10-18T05:31:04.146Z,203.70
2018-10-18T05:33:33.002Z,236.50
2018-10-18T05:36:01.920Z,169.73
2018-10-18T05:38:30.697Z,205.83
2018-10-18T05:40:59.577Z,339.60
2018-10-18T05:43:28.464Z,224.07
2018-10-18T05:45:58.091Z,165.70
2018-10-18T05:48:27.681Z,183.00
2018-10-18T05:50:56.565Z,175.83
2018-10-18T05:53:25.502Z,177.50
2018-10-18T05:55:55.980Z,148.20
2018-10-18T05:58:24.831Z,122.17
2018-10-18T06:00:53.744Z,150.00
2018-10-18T06:03:22.608Z,137.57
2018-10-18T06:05:51.497Z,166.50
2018-10-18T06:08:20.375Z,129.47
2018-10-18T06:11:00.253Z,133.93
2018-10-18T06:13:29.283Z,122.43
2018-10-18T06:15:58.118Z,152.67
2018-10-18T06:18:27.707Z,125.70
2018-10-18T06:20:56.516Z,134.17
2018-10-18T06:23:25.489Z,102.40
2018-10-18T06:25:54.353Z,114.03
2018-10-18T06:28:23.233Z,98.80
2018-10-18T06:30:52.989Z,95.53
2018-10-18T06:33:21.772Z,104.57
2018-10-18T06:35:50.659Z,105.33
2018-10-18T06:38:19.601Z,94.03
2018-10-18T06:40:48.518Z,88.63
2018-10-18T06:43:17.518Z,105.73
2018-10-18T06:46:01.338Z,86.57
2018-10-18T06:48:30.166Z,80.77
2018-10-18T06:50:58.963Z,86.00
2018-10-18T06:53:27.898Z,141.10
2018-10-18T06:55:56.813Z,168.93
2018-10-18T06:58:25.655Z,125.83
2018-10-18T07:00:54.550Z,119.70
2018-10-18T07:03:23.367Z,107.17
2018-10-18T07:05:52.160Z,122.03
2018-10-18T07:08:21.083Z,113.27
2018-10-18T07:10:49.993Z,107.53
2018-10-18T07:13:18.735Z,124.20
2018-10-18T07:15:48.498Z,114.00
2018-10-18T07:18:17.683Z,116.10
2018-10-18T07:20:46.549Z,118.63
2018-10-18T07:23:15.347Z,123.37
2018-10-18T07:25:44.138Z,134.03
2018-10-18T07:28:13.043Z,125.90
2018-10-18T07:30:41.809Z,116.17
2018-10-18T07:33:10.686Z,142.07
2018-10-18T07:35:39.590Z,136.43
2018-10-18T07:38:08.407Z,124.87
2018-10-18T07:40:37.240Z,140.67
2018-10-18T07:43:06.081Z,142.27
2018-10-18T07:45:34.869Z,117.23
2018-10-18T07:48:03.765Z,127.27
2018-10-18T07:50:32.524Z,149.40
2018-10-18T07:53:01.507Z,129.57
2018-10-18T07:55:30.377Z,142.03
2018-10-18T07:57:59.163Z,139.47
2018-10-18T08:00:28.131Z,128.97
2018-10-18T08:03:04.638Z,121.70
2018-10-18T08:05:34.517Z,158.70
2018-10-18T08:08:03.564Z,133.10
2018-10-18T08:10:32.713Z,157.43
2018-10-18T08:13:02.498Z,175.07
2018-10-18T08:15:32.341Z,210.07
2018-10-18T08:18:01.288Z,200.80
2018-10-18T08:20:31.081Z,233.37
2018-10-18T08:23:01.038Z,256.57
2018-10-18T08:25:30.086Z,223.20
2018-10-18T08:27:59.127Z,323.60
2018-10-18T08:30:28.287Z,333.07
2018-10-18T08:32:57.446Z,327.47
2018-10-18T08:35:26.457Z,319.17
2018-10-18T08:37:55.556Z,429.47
2018-10-18T08:40:25.011Z,426.77
2018-10-18T08:42:54.064Z,388.33
2018-10-18T08:45:23.149Z,421.77
2018-10-18T08:47:52.215Z,487.90
2018-10-18T08:50:21.116Z,293.23
2018-10-18T08:52:50.001Z,275.33
2018-10-18T08:55:19.571Z,430.23
2018-10-18T08:57:48.550Z,329.43
2018-10-18T09:00:17.304Z,325.37
2018-10-18T09:02:47.150Z,294.23
2018-10-18T09:05:15.933Z,392.07
2018-10-18T09:07:44.816Z,267.57
2018-10-18T09:10:13.666Z,208.67
2018-10-18T09:12:44.184Z,231.60
2018-10-18T09:15:13.350Z,240.57
2018-10-18T09:17:42.140Z,289.57
2018-10-18T09:20:12.219Z,239.53
2018-10-18T09:22:41.040Z,236.70
2018-10-18T09:25:11.998Z,189.03
2018-10-18T09:27:41.338Z,259.23
2018-10-18T09:30:12.133Z,243.70
2018-10-18T09:32:40.904Z,219.50
2018-10-18T09:35:09.736Z,215.13
2018-10-18T09:37:38.634Z,198.50
2018-10-18T09:40:09.454Z,193.50
2018-10-18T09:42:38.323Z,205.07
2018-10-18T09:45:09.674Z,194.03
2018-10-18T09:47:38.600Z,188.40
2018-10-18T09:50:07.675Z,192.47
2018-10-18T09:52:36.430Z,173.30
2018-10-18T09:55:06.255Z,188.00
2018-10-18T09:57:35.132Z,166.40
2018-10-18T10:00:05.353Z,185.83
2018-10-18T10:02:41.283Z,174.90
2018-10-18T10:05:10.792Z,196.30
2018-10-18T10:07:39.838Z,175.30
2018-10-18T10:10:09.406Z,192.87
2018-10-18T10:12:39.522Z,158.97
2018-10-18T10:15:09.226Z,148.13
2018-10-18T10:17:38.908Z,149.47
2018-10-18T10:20:09.552Z,159.17
2018-10-18T10:22:39.078Z,158.80
2018-10-18T10:25:08.670Z,146.23
2018-10-18T10:27:38.252Z,152.57
2018-10-18T10:30:09.946Z,158.27
2018-10-18T10:32:39.134Z,148.20
2018-10-18T10:35:09.979Z,144.70
2018-10-18T10:37:41.364Z,129.17
2018-10-18T10:40:11.385Z,139.47
2018-10-18T10:42:41.803Z,137.50
2018-10-18T10:45:12.513Z,139.77
2018-10-18T10:47:42.317Z,140.77
2018-10-18T10:50:11.429Z,143.80
2018-10-18T10:52:41.147Z,149.57
2018-10-18T10:55:11.612Z,143.17
2018-10-18T10:57:42.878Z,153.17
2018-10-18T11:00:12.720Z,146.33
2018-10-18T11:02:44.251Z,151.83
2018-10-18T11:05:15.216Z,148.23
2018-10-18T11:07:46.511Z,139.33
2018-10-18T11:10:15.864Z,145.27
2018-10-18T11:12:45.180Z,156.33
2018-10-18T11:15:15.150Z,152.23
2018-10-18T11:17:46.529Z,139.70
2018-10-18T11:20:15.808Z,150.67
2018-10-18T11:22:44.983Z,155.37
2018-10-18T11:25:15.126Z,171.87
2018-10-18T11:27:46.069Z,101.00
2018-10-18T11:30:15.019Z,151.87
2018-10-18T11:32:45.008Z,136.77
2018-10-18T11:35:18.078Z,132.87
2018-10-18T11:37:47.259Z,219.23
2018-10-18T11:40:16.684Z,155.80
2018-10-18T11:42:45.654Z,162.47
2018-10-18T11:45:14.760Z,175.60
2018-10-18T11:47:44.862Z,170.73
2018-10-18T11:50:16.560Z,136.70
2018-10-18T11:52:47.217Z,135.53
2018-10-18T11:55:18.040Z,154.53
2018-10-18T11:57:46.934Z,159.10
2018-10-18T12:00:19.989Z,120.87
2018-10-18T12:02:52.332Z,143.17
2018-10-18T12:05:21.462Z,165.47
2018-10-18T12:07:50.615Z,88.23
2018-10-18T12:10:19.792Z,90.23
2018-10-18T12:12:48.971Z,119.40
2018-10-18T12:15:17.860Z,109.40
2018-10-18T12:17:46.910Z,90.17
2018-10-18T12:20:17.571Z,94.23
2018-10-18T12:22:46.436Z,95.10
2018-10-18T12:25:16.255Z,98.73
2018-10-18T12:27:45.771Z,103.00
2018-10-18T12:30:16.081Z,96.77
2018-10-18T12:32:45.205Z,90.97
2018-10-18T12:35:15.725Z,97.80
2018-10-18T12:37:46.780Z,79.70
2018-10-18T12:40:16.481Z,76.17
2018-10-18T12:42:46.723Z,97.73
2018-10-18T12:45:15.548Z,82.73
2018-10-18T12:47:45.620Z,92.57
2018-10-18T12:50:14.664Z,91.43
2018-10-18T12:52:43.543Z,95.00
2018-10-18T12:55:12.650Z,81.53
2018-10-18T12:57:42.323Z,62.83
2018-10-18T13:00:11.643Z,74.60
2018-10-18T13:02:40.935Z,73.03
2018-10-18T13:05:11.204Z,64.93
2018-10-18T13:07:39.989Z,73.60
2018-10-18T13:10:16.519Z,71.80
2018-10-18T13:12:45.596Z,76.23
2018-10-18T13:15:14.410Z,72.37
2018-10-18T13:17:43.250Z,69.10
2018-10-18T13:20:12.309Z,82.50
2018-10-18T13:22:41.317Z,65.13
2018-10-18T13:25:11.627Z,65.30
2018-10-18T13:27:40.433Z,68.80
2018-10-18T13:30:10.678Z,81.17
2018-10-18T13:32:40.119Z,72.23
2018-10-18T13:35:09.496Z,75.30
2018-10-18T13:37:38.316Z,70.27
2018-10-18T13:40:08.383Z,79.43
2018-10-18T13:42:37.417Z,50.70
2018-10-18T13:45:07.121Z,77.27
2018-10-18T13:47:36.467Z,79.37
2018-10-18T13:50:05.808Z,80.80
2018-10-18T13:52:34.645Z,96.90
2018-10-18T13:55:03.751Z,76.57
2018-10-18T13:57:32.658Z,84.83
2018-10-18T14:00:23.583Z,79.10
2018-10-18T14:02:53.466Z,87.60
2018-10-18T14:05:22.858Z,89.30
2018-10-18T14:07:52.813Z,80.53
2018-10-18T14:10:21.947Z,78.20
2018-10-18T14:12:51.311Z,92.43
2018-10-18T14:15:20.242Z,87.17
2018-10-18T14:17:49.057Z,87.93
2018-10-18T14:20:18.355Z,81.67
2018-10-18T14:22:47.153Z,86.53
2018-10-18T14:25:16.013Z,87.00
2018-10-18T14:27:44.992Z,90.33
2018-10-18T14:30:14.848Z,82.07
2018-10-18T14:32:43.690Z,90.17
2018-10-18T14:35:13.965Z,82.03
2018-10-18T14:37:43.030Z,90.87
2018-10-18T14:40:12.883Z,92.40
2018-10-18T14:42:42.087Z,91.10
2018-10-18T14:45:11.085Z,92.53
2018-10-18T14:47:40.166Z,79.57
2018-10-18T14:50:12.311Z,83.70
2018-10-18T14:52:41.148Z,90.80
2018-10-18T14:55:10.084Z,83.30
2018-10-18T14:57:39.396Z,87.03
2018-10-18T15:00:11.325Z,87.43
2018-10-18T15:02:40.640Z,87.47
2018-10-18T15:05:11.497Z,83.97
2018-10-18T15:07:40.982Z,94.20
2018-10-18T15:10:11.691Z,85.57
2018-10-18T15:12:40.832Z,90.63
2018-10-18T15:15:11.491Z,97.40
2018-10-18T15:17:40.850Z,95.03
2018-10-18T15:20:10.977Z,104.13
2018-10-18T15:22:40.582Z,91.60
2018-10-18T15:25:10.589Z,80.57
2018-10-18T15:27:40.720Z,110.07
2018-10-18T15:30:11.200Z,92.80
2018-10-18T15:32:40.816Z,80.03
2018-10-18T15:35:10.785Z,92.30
2018-10-18T15:37:40.366Z,89.60
2018-10-18T15:40:09.561Z,82.77
2018-10-18T15:42:38.428Z,94.87
2018-10-18T15:45:08.126Z,70.90
2018-10-18T15:47:37.160Z,90.23
2018-10-18T15:50:07.716Z,89.63
2018-10-18T15:52:36.729Z,84.93
2018-10-18T15:55:06.131Z,83.83
2018-10-18T15:57:34.976Z,43.63
2018-10-18T16:00:03.882Z,79.57
2018-10-18T16:02:33.154Z,79.07
2018-10-18T16:05:01.936Z,88.83
2018-10-18T16:07:30.755Z,67.80
2018-10-18T16:09:59.662Z,91.50
2018-10-18T16:12:28.541Z,85.00
2018-10-18T16:14:57.403Z,90.17
2018-10-18T16:17:26.331Z,80.10
2018-10-18T16:19:55.275Z,86.27
2018-10-18T16:22:24.127Z,83.70
2018-10-18T16:24:53.035Z,87.27
2018-10-18T16:27:22.187Z,81.27
2018-10-18T16:29:53.441Z,83.10
2018-10-18T16:32:22.202Z,78.63
2018-10-18T16:34:51.036Z,89.80
2018-10-18T16:37:19.859Z,78.87
2018-10-18T16:39:55.924Z,75.53
2018-10-18T16:42:31.844Z,64.77
2018-10-18T16:45:00.759Z,77.63
2018-10-18T16:47:30.681Z,72.80
2018-10-18T16:49:59.597Z,80.13
2018-10-18T16:52:28.446Z,87.07
2018-10-18T16:54:57.268Z,74.40
2018-10-18T16:57:26.200Z,76.57
2018-10-18T16:59:55.780Z,72.30
2018-10-18T17:02:24.739Z,76.43
2018-10-18T17:04:53.867Z,71.97
2018-10-18T17:07:22.743Z,79.00
2018-10-18T17:09:51.597Z,73.53
2018-10-18T17:12:20.429Z,75.40
2018-10-18T17:14:51.267Z,73.87
2018-10-18T17:17:20.138Z,80.13
2018-10-18T17:19:48.846Z,77.77
2018-10-18T17:22:17.695Z,75.00
2018-10-18T17:24:46.523Z,75.47
2018-10-18T17:27:15.660Z,75.77
2018-10-18T17:29:44.687Z,75.47
2018-10-18T17:32:13.931Z,68.17
2018-10-18T17:34:42.679Z,75.37
2018-10-18T17:37:12.584Z,74.83
2018-10-18T17:39:41.465Z,76.10
2018-10-18T17:42:10.451Z,70.57
2018-10-18T17:44:39.235Z,66.13
2018-10-18T17:47:11.407Z,67.77
2018-10-18T17:49:40.871Z,67.47
2018-10-18T17:52:11.262Z,61.67
2018-10-18T17:54:40.132Z,64.33
2018-10-18T17:57:09.364Z,66.10
2018-10-18T17:59:39.213Z,62.37
2018-10-18T18:02:12.253Z,62.80
2018-10-18T18:04:41.360Z,65.30
2018-10-18T18:07:11.525Z,55.60
2018-10-18T18:09:41.170Z,62.50
2018-10-18T18:12:10.145Z,63.80
2018-10-18T18:14:38.918Z,61.60
2018-10-18T18:17:38.041Z,57.17
2018-10-18T18:20:08.403Z,50.27
2018-10-18T18:22:37.416Z,60.47
2018-10-18T18:25:08.688Z,54.30
2018-10-18T18:27:37.744Z,54.27
2018-10-18T18:30:09.045Z,54.83
2018-10-18T18:32:39.304Z,50.60
2018-10-18T18:35:08.224Z,55.70
2018-10-18T18:37:37.751Z,53.53
2018-10-18T18:40:09.188Z,54.13
2018-10-18T18:42:39.883Z,43.77
2018-10-18T18:45:14.188Z,52.60
2018-10-18T18:47:43.526Z,52.97
2018-10-18T18:50:12.960Z,51.13
2018-10-18T18:52:42.860Z,55.20
2018-10-18T18:55:11.793Z,50.83
2018-10-18T18:57:40.624Z,40.87
2018-10-18T19:00:10.740Z,43.77
2018-10-18T19:02:40.250Z,41.63
2018-10-18T19:05:09.663Z,45.43
2018-10-18T19:07:38.639Z,42.30
2018-10-18T19:10:08.329Z,40.20
2018-10-18T19:12:37.208Z,43.63
2018-10-18T19:15:07.166Z,48.67
2018-10-18T19:17:36.135Z,47.10
2018-10-18T19:20:05.579Z,48.23
2018-10-18T19:22:35.284Z,43.73
2018-10-18T19:25:04.958Z,50.47
2018-10-18T19:27:34.402Z,38.93
2018-10-18T19:30:03.346Z,31.50
2018-10-18T19:32:34.196Z,51.60
2018-10-18T19:35:03.023Z,41.90
2018-10-18T19:37:37.525Z,48.23
2018-10-18T19:40:07.355Z,55.63
2018-10-18T19:42:36.619Z,58.90
2018-10-18T19:45:06.890Z,55.20
2018-10-18T19:47:35.738Z,59.40
2018-10-18T19:50:04.722Z,56.70
2018-10-18T19:52:33.755Z,53.97
2018-10-18T19:55:02.791Z,61.73
2018-10-18T19:57:31.656Z,55.73
2018-10-18T20:00:00.824Z,51.97
2018-10-18T20:02:29.922Z,50.13
2018-10-18T20:04:58.733Z,51.30
2018-10-18T20:07:27.542Z,57.80
2018-10-18T20:09:56.420Z,48.80
2018-10-18T20:12:25.235Z,43.87
2018-10-18T20:14:55.555Z,56.67
2018-10-18T20:17:24.395Z,45.07
2018-10-18T20:19:53.303Z,45.10
2018-10-18T20:22:22.149Z,50.33
2018-10-18T20:24:51.116Z,40.47
2018-10-18T20:27:19.958Z,45.27
2018-10-18T20:29:50.866Z,34.43
2018-10-18T20:32:19.738Z,40.30
2018-10-18T20:34:48.859Z,30.87
2018-10-18T20:37:17.783Z,30.37
2018-10-18T20:39:46.949Z,37.80
2018-10-18T20:42:15.757Z,31.47
2018-10-18T20:44:44.979Z,30.30
2018-10-18T20:47:13.939Z,35.47
2018-10-18T20:49:42.715Z,37.03
2018-10-18T20:52:11.540Z,40.23
2018-10-18T20:54:40.605Z,42.43
2018-10-18T20:57:09.810Z,36.63
2018-10-18T20:59:39.024Z,35.77
2018-10-18T21:02:07.934Z,35.27
2018-10-18T21:04:36.825Z,40.97
2018-10-18T21:07:05.821Z,44.87
2018-10-18T21:09:34.769Z,40.77
2018-10-18T21:12:03.668Z,42.47
2018-10-18T21:14:32.579Z,36.00
2018-10-18T21:17:01.391Z,49.37
2018-10-18T21:19:30.204Z,46.47
2018-10-18T21:21:59.138Z,48.73
2018-10-18T21:24:27.930Z,44.03
2018-10-18T21:26:56.825Z,49.73
2018-10-18T21:29:25.726Z,49.87
2018-10-18T21:31:54.497Z,48.47
2018-10-18T21:34:23.360Z,48.73
2018-10-18T21:36:52.067Z,49.17
2018-10-18T21:39:33.374Z,45.53
2018-10-18T21:42:03.189Z,54.00
2018-10-18T21:44:35.476Z,47.47
2018-10-18T21:47:04.466Z,46.97
2018-10-18T21:49:33.455Z,53.03
2018-10-18T21:52:02.239Z,45.73
2018-10-18T21:54:31.576Z,43.27
2018-10-18T21:57:00.403Z,44.20
2018-10-18T21:59:29.287Z,46.50
2018-10-18T22:01:58.086Z,51.80
2018-10-18T22:04:26.955Z,45.27
2018-10-18T22:06:55.762Z,45.20
2018-10-18T22:09:24.643Z,43.80
2018-10-18T22:11:53.429Z,52.30
2018-10-18T22:14:22.291Z,44.63
2018-10-18T22:16:51.028Z,42.60
2018-10-18T22:19:20.132Z,42.57
2018-10-18T22:21:48.965Z,46.03
2018-10-18T22:24:17.829Z,49.00
2018-10-18T22:26:46.707Z,45.67
2018-10-18T22:29:15.710Z,46.23
2018-10-18T22:31:44.585Z,45.90
2018-10-18T22:34:13.394Z,45.07
2018-10-18T22:36:42.246Z,45.00
2018-10-18T22:39:12.189Z,44.57
2018-10-18T22:41:41.774Z,40.30
2018-10-18T22:44:11.284Z,46.27
2018-10-18T22:46:40.221Z,37.83
2018-10-18T22:49:09.012Z,42.90
2018-10-18T22:51:37.903Z,45.10
2018-10-18T22:54:06.894Z,39.20
2018-10-18T22:56:35.843Z,42.30
2018-10-18T22:59:04.835Z,42.97
2018-10-18T23:01:33.670Z,45.73
2018-10-18T23:04:02.474Z,47.20
2018-10-18T23:06:31.370Z,44.20
2018-10-18T23:09:00.323Z,41.30
2018-10-18T23:11:29.709Z,41.33
2018-10-18T23:13:58.601Z,37.03
2018-10-18T23:16:27.430Z,40.90
2018-10-18T23:18:56.787Z,46.10
2018-10-18T23:21:25.547Z,43.80
2018-10-18T23:23:54.359Z,44.60
2018-10-18T23:26:23.228Z,44.80
2018-10-18T23:28:52.163Z,40.37
2018-10-18T23:31:21.045Z,28.97
2018-10-18T23:33:50.198Z,38.93
2018-10-18T23:36:19.176Z,41.53
2018-10-18T23:38:48.002Z,42.63
2018-10-18T23:41:16.967Z,37.80
2018-10-18T23:43:45.942Z,27.97
2018-10-18T23:46:15.139Z,35.03
2018-10-18T23:48:43.918Z,42.00
2018-10-18T23:51:12.860Z,34.77
2018-10-18T23:53:41.794Z,40.33
2018-10-18T23:56:10.631Z,22.17
2018-10-18T23:58:39.944Z,32.80
